Time;durP1;ratioP1;P1;durP2;ratioP2;P2;SDS_P1;SDS_P2;PMS_P1;PMS_P2;Temp;Humidity;BMP_temperature;BMP_pressure;BME280_temperature;BME280_humidity;BME280_pressure;Samples;Min_cycle;Max_cycle;Signal;HPM_P1;HPM_P2
2023/04/03 00:01:14;;;;;;;3.65;1.50;;;-0.30;99.90;;;;;;5007856;28;20061;-81
2023/04/03 00:03:41;;;;;;;3.05;1.08;;;-0.30;99.90;;;;;;4997445;28;20034;-80
2023/04/03 00:06:08;;;;;;;3.08;1.50;;;-0.40;99.90;;;;;;5011550;28;20469;-80
2023/04/03 00:08:34;;;;;;;7.45;1.70;;;-0.40;99.90;;;;;;5009070;28;20142;-81
2023/04/03 00:11:00;;;;;;;4.35;1.65;;;-0.40;99.90;;;;;;5013287;28;20038;-80
2023/04/03 00:13:26;;;;;;;3.33;1.33;;;-0.40;99.90;;;;;;5010872;28;20038;-81
2023/04/03 00:15:52;;;;;;;4.53;1.83;;;-0.50;99.90;;;;;;4997502;28;20050;-81
2023/04/03 00:18:17;;;;;;;4.60;1.85;;;-0.50;99.90;;;;;;5004596;28;20032;-81
2023/04/03 00:20:43;;;;;;;3.28;1.38;;;-0.50;99.90;;;;;;5008888;28;20019;-81
2023/04/03 00:23:09;;;;;;;4.18;1.63;;;-0.50;99.90;;;;;;5004559;28;20026;-81
2023/04/03 00:25:35;;;;;;;2.78;1.85;;;-0.50;99.90;;;;;;5008511;28;20030;-81
2023/04/03 00:28:01;;;;;;;6.65;2.00;;;-0.60;99.90;;;;;;5005078;28;20037;-81
2023/04/03 00:30:26;;;;;;;6.25;1.98;;;-0.60;99.90;;;;;;5007033;28;20037;-82
2023/04/03 00:32:52;;;;;;;2.20;1.35;;;-0.60;99.90;;;;;;5004698;28;20023;-80
2023/04/03 00:35:19;;;;;;;8.13;1.95;;;-0.60;99.90;;;;;;5006082;28;20057;-81
2023/04/03 00:37:45;;;;;;;1.42;1.17;;;-0.60;99.90;;;;;;5007957;28;20022;-81
2023/04/03 00:40:13;;;;;;;2.10;1.17;;;-0.60;99.90;;;;;;5006106;28;20028;-81
2023/04/03 00:42:40;;;;;;;4.40;1.45;;;-0.70;99.90;;;;;;5002879;28;20133;-81
2023/04/03 00:45:06;;;;;;;8.07;2.00;;;-0.70;99.90;;;;;;4991544;28;20112;-81
2023/04/03 00:47:32;;;;;;;4.95;1.50;;;-0.70;99.90;;;;;;4996155;28;20054;-81
2023/04/03 00:49:58;;;;;;;2.15;1.67;;;-0.80;99.90;;;;;;4995060;28;20038;-81
2023/04/03 00:52:30;;;;;;;2.97;1.48;;;-0.80;99.90;;;;;;5025030;28;20030;-81
2023/04/03 00:55:01;;;;;;;4.72;1.70;;;-0.80;99.90;;;;;;4999298;28;20101;-81
2023/04/03 00:57:27;;;;;;;2.40;1.58;;;-0.80;99.90;;;;;;5002669;28;20031;-82
2023/04/03 00:59:57;;;;;;;3.47;1.63;;;-0.80;99.90;;;;;;4993986;28;20041;-82
2023/04/03 01:02:23;;;;;;;6.45;2.00;;;-0.90;99.90;;;;;;4993752;28;20803;-81
2023/04/03 01:04:48;;;;;;;5.50;1.50;;;-0.90;99.90;;;;;;4999474;28;20089;-81
2023/04/03 01:07:18;;;;;;;8.68;1.55;;;-0.90;99.90;;;;;;5001932;28;20397;-81
2023/04/03 01:09:46;;;;;;;5.00;1.73;;;-0.90;99.90;;;;;;5008625;28;20034;-81
2023/04/03 01:12:27;;;;;;;6.70;1.65;;;-0.90;99.90;;;;;;5011365;28;20030;-82
2023/04/03 01:14:55;;;;;;;3.97;1.85;;;-0.90;99.90;;;;;;5003707;28;20034;-80
2023/04/03 01:17:27;;;;;;;4.43;1.50;;;-1.00;99.90;;;;;;5003870;28;20038;-82
2023/04/03 01:20:04;;;;;;;2.90;1.48;;;-1.00;99.90;;;;;;5011417;28;20040;-82
2023/04/03 01:22:41;;;;;;;6.93;1.88;;;-1.00;99.90;;;;;;5007629;28;20034;-82
2023/04/03 01:25:06;;;;;;;3.15;1.60;;;-1.00;99.90;;;;;;5002430;28;20395;-81
2023/04/03 01:27:32;;;;;;;7.57;2.08;;;-1.10;99.90;;;;;;5007443;28;20129;-81
2023/04/03 01:29:58;;;;;;;3.83;1.77;;;-1.10;99.90;;;;;;5012490;28;20034;-81
2023/04/03 01:32:23;;;;;;;6.18;1.83;;;-1.10;99.90;;;;;;5022060;28;20046;-81
2023/04/03 01:34:49;;;;;;;5.60;1.90;;;-1.10;99.90;;;;;;5002704;28;20023;-80
2023/04/03 01:37:14;;;;;;;4.47;1.88;;;-1.10;99.90;;;;;;5025813;28;20033;-81
2023/04/03 01:39:40;;;;;;;3.28;1.67;;;-1.10;99.90;;;;;;5000611;28;20089;-81
2023/04/03 01:42:06;;;;;;;4.47;1.67;;;-1.10;99.90;;;;;;5011260;28;20485;-81
2023/04/03 01:44:31;;;;;;;6.75;1.92;;;-1.10;99.90;;;;;;5009723;28;20098;-81
2023/04/03 01:46:57;;;;;;;3.65;1.73;;;-1.20;99.90;;;;;;5014460;28;20473;-81
2023/04/03 01:49:23;;;;;;;5.65;1.95;;;-1.10;99.90;;;;;;5011625;28;20037;-81
2023/04/03 01:51:48;;;;;;;5.60;1.50;;;-1.10;99.90;;;;;;5007677;28;20038;-82
2023/04/03 01:54:14;;;;;;;4.22;1.63;;;-1.20;99.90;;;;;;5011790;28;20021;-81
2023/04/03 01:56:39;;;;;;;7.55;1.70;;;-1.10;99.90;;;;;;4998162;28;20030;-81
2023/04/03 01:59:05;;;;;;;2.72;1.67;;;-1.10;99.90;;;;;;5008558;28;20021;-81
2023/04/03 02:01:30;;;;;;;5.43;1.83;;;-1.10;99.90;;;;;;5006739;28;20034;-81
2023/04/03 02:03:56;;;;;;;5.82;1.45;;;-1.10;99.90;;;;;;4990973;28;20488;-81
2023/04/03 02:06:22;;;;;;;4.45;1.42;;;-1.10;99.90;;;;;;5000586;28;20111;-81
2023/04/03 02:08:47;;;;;;;4.03;1.48;;;-1.10;99.90;;;;;;5003731;28;20123;-82
2023/04/03 02:11:13;;;;;;;4.75;1.60;;;-1.10;99.90;;;;;;5022519;28;20567;-81
2023/04/03 02:13:38;;;;;;;7.40;2.28;;;-1.10;99.90;;;;;;4997833;28;20483;-81
2023/04/03 02:16:09;;;;;;;3.22;1.27;;;-1.10;99.90;;;;;;4998606;28;20090;-80
2023/04/03 02:18:35;;;;;;;3.83;1.65;;;-1.10;99.90;;;;;;5008036;28;20057;-81
2023/04/03 02:21:01;;;;;;;7.75;2.63;;;-1.10;99.90;;;;;;5005446;28;20684;-81
2023/04/03 02:23:26;;;;;;;3.95;1.60;;;-1.10;99.90;;;;;;5027890;28;20026;-81
2023/04/03 02:25:52;;;;;;;3.17;1.52;;;-1.10;99.90;;;;;;5004186;28;20424;-82
2023/04/03 02:28:17;;;;;;;4.00;1.30;;;-1.10;99.90;;;;;;4997652;28;20046;-82
2023/04/03 02:30:43;;;;;;;5.72;1.23;;;-1.10;99.90;;;;;;5002730;28;20058;-81
2023/04/03 02:33:08;;;;;;;2.97;1.88;;;-1.10;99.90;;;;;;5002663;28;20022;-82
2023/04/03 02:35:34;;;;;;;5.10;1.48;;;-1.10;99.90;;;;;;5004439;28;20022;-81
2023/04/03 02:38:00;;;;;;;3.63;1.48;;;-1.10;99.90;;;;;;5008098;28;20037;-80
2023/04/03 02:40:25;;;;;;;3.20;1.52;;;-1.10;99.90;;;;;;5005768;28;20477;-82
2023/04/03 02:42:51;;;;;;;4.75;1.40;;;-1.10;99.90;;;;;;5001916;28;20057;-82
2023/04/03 02:45:16;;;;;;;4.72;1.63;;;-1.10;99.90;;;;;;5011393;28;20022;-82
2023/04/03 02:47:42;;;;;;;5.63;1.80;;;-1.10;99.90;;;;;;5006219;28;20042;-81
2023/04/03 02:50:08;;;;;;;3.00;1.35;;;-1.20;99.90;;;;;;5007254;28;20048;-81
2023/04/03 02:52:34;;;;;;;5.40;1.83;;;-1.20;99.90;;;;;;5009132;28;20350;-81
2023/04/03 02:54:59;;;;;;;2.90;1.23;;;-1.20;99.90;;;;;;5006623;28;20033;-81
2023/04/03 02:57:25;;;;;;;4.57;1.70;;;-1.20;99.90;;;;;;5011852;28;20049;-82
2023/04/03 02:59:50;;;;;;;6.10;1.95;;;-1.20;99.90;;;;;;5003464;28;20022;-82
2023/04/03 03:02:16;;;;;;;2.80;1.88;;;-1.20;99.90;;;;;;5009471;28;20056;-81
2023/04/03 03:04:42;;;;;;;6.05;1.83;;;-1.20;99.90;;;;;;5006438;28;20084;-82
2023/04/03 03:07:07;;;;;;;3.40;1.42;;;-1.30;99.90;;;;;;5028133;28;20028;-82
2023/04/03 03:09:33;;;;;;;3.72;1.42;;;-1.30;99.90;;;;;;5007769;28;20022;-82
2023/04/03 03:11:59;;;;;;;4.32;1.27;;;-1.30;99.90;;;;;;5011587;28;20022;-81
2023/04/03 03:14:25;;;;;;;4.63;1.67;;;-1.30;99.90;;;;;;5010374;28;20030;-81
2023/04/03 03:16:51;;;;;;;2.38;1.38;;;-1.30;99.90;;;;;;5004216;28;20034;-82
2023/04/03 03:19:17;;;;;;;4.43;1.80;;;-1.30;99.90;;;;;;5007272;28;20108;-82
2023/04/03 03:21:42;;;;;;;4.60;1.75;;;-1.30;99.90;;;;;;5000557;28;20023;-82
2023/04/03 03:24:08;;;;;;;3.30;1.90;;;-1.30;99.90;;;;;;5013388;28;20097;-82
2023/04/03 03:26:34;;;;;;;4.53;1.40;;;-1.30;99.90;;;;;;4999535;28;20629;-81
2023/04/03 03:28:59;;;;;;;1.88;1.23;;;-1.30;99.90;;;;;;5009287;28;20026;-81
2023/04/03 03:31:25;;;;;;;3.38;1.17;;;-1.30;99.90;;;;;;5008789;28;20033;-81
2023/04/03 03:33:50;;;;;;;1.92;1.10;;;-1.30;99.90;;;;;;5009847;28;20477;-81
2023/04/03 03:36:16;;;;;;;2.83;1.38;;;-1.30;99.90;;;;;;5010818;28;20018;-80
2023/04/03 03:38:41;;;;;;;5.40;1.98;;;-1.30;99.90;;;;;;5001645;28;20033;-82
2023/04/03 03:41:07;;;;;;;4.90;2.20;;;-1.30;99.90;;;;;;5009077;28;20495;-79
2023/04/03 03:43:33;;;;;;;2.55;1.10;;;-1.30;99.90;;;;;;5001445;28;20041;-80
2023/04/03 03:45:58;;;;;;;3.80;1.60;;;-1.30;99.90;;;;;;5001344;28;20041;-81
2023/04/03 03:48:24;;;;;;;3.10;1.38;;;-1.40;99.90;;;;;;4997582;28;20447;-80
2023/04/03 03:50:50;;;;;;;4.30;1.83;;;-1.40;99.90;;;;;;5001142;28;20018;-80
2023/04/03 03:53:15;;;;;;;4.10;1.40;;;-1.40;99.90;;;;;;5023317;28;20029;-80
2023/04/03 03:55:41;;;;;;;4.35;1.67;;;-1.40;99.90;;;;;;5017243;28;20025;-81
2023/04/03 03:58:07;;;;;;;3.15;1.70;;;-1.40;99.90;;;;;;5011998;28;20026;-81
2023/04/03 04:00:33;;;;;;;5.55;2.22;;;-1.40;99.90;;;;;;5006062;28;20030;-81
2023/04/03 04:02:58;;;;;;;4.97;1.50;;;-1.40;99.90;;;;;;5008083;28;20551;-80
2023/04/03 04:05:24;;;;;;;7.82;1.88;;;-1.40;99.90;;;;;;5005597;28;20108;-81
2023/04/03 04:07:50;;;;;;;5.22;1.50;;;-1.40;99.90;;;;;;5010087;28;20034;-81
2023/04/03 04:10:16;;;;;;;3.80;1.55;;;-1.50;99.90;;;;;;5005711;28;20032;-80
2023/04/03 04:12:41;;;;;;;4.32;1.80;;;-1.50;99.90;;;;;;5011666;28;20389;-80
2023/04/03 04:15:08;;;;;;;6.47;1.70;;;-1.50;99.90;;;;;;5003364;28;20034;-80
2023/04/03 04:17:34;;;;;;;6.28;1.88;;;-1.50;99.90;;;;;;5004221;28;20014;-81
2023/04/03 04:20:00;;;;;;;4.28;2.08;;;-1.50;99.90;;;;;;5004643;28;20091;-80
2023/04/03 04:22:26;;;;;;;2.58;1.50;;;-1.50;99.90;;;;;;4999280;28;20023;-81
2023/04/03 04:24:51;;;;;;;4.90;1.50;;;-1.50;99.90;;;;;;5000427;28;20034;-81
2023/04/03 04:27:17;;;;;;;6.70;1.52;;;-1.40;99.90;;;;;;4996810;28;20029;-81
2023/04/03 04:29:43;;;;;;;3.08;1.73;;;-1.50;99.90;;;;;;5010397;28;20037;-81
2023/04/03 04:32:08;;;;;;;5.90;1.33;;;-1.50;99.90;;;;;;5003136;28;20042;-81
2023/04/03 04:34:34;;;;;;;6.78;1.70;;;-1.50;99.90;;;;;;5001878;28;20058;-81
2023/04/03 04:36:59;;;;;;;7.78;2.47;;;-1.50;99.90;;;;;;5002022;28;20541;-81
2023/04/03 04:39:25;;;;;;;5.75;1.67;;;-1.40;99.90;;;;;;5002661;28;20023;-81
2023/04/03 04:41:51;;;;;;;3.42;1.88;;;-1.40;99.90;;;;;;5001754;28;20026;-81
2023/04/03 04:44:16;;;;;;;3.15;1.90;;;-1.40;99.90;;;;;;5000623;28;20022;-80
2023/04/03 04:46:42;;;;;;;3.03;1.52;;;-1.40;99.90;;;;;;5021620;28;20029;-81
2023/04/03 04:49:07;;;;;;;8.20;2.50;;;-1.40;99.90;;;;;;5006225;28;20113;-81
2023/04/03 04:51:33;;;;;;;3.88;1.55;;;-1.40;99.90;;;;;;5009005;28;20029;-81
2023/04/03 04:53:58;;;;;;;4.68;2.15;;;-1.40;99.90;;;;;;5025267;28;20034;-81
2023/04/03 04:56:25;;;;;;;2.55;1.70;;;-1.50;99.90;;;;;;5008358;28;20014;-81
2023/04/03 04:58:50;;;;;;;5.88;1.77;;;-1.50;99.90;;;;;;5019518;28;20022;-81
2023/04/03 05:01:16;;;;;;;5.57;1.98;;;-1.50;99.90;;;;;;5010627;28;20033;-81
2023/04/03 05:03:42;;;;;;;5.38;2.22;;;-1.50;99.90;;;;;;4999273;28;20088;-81
2023/04/03 05:06:07;;;;;;;7.20;2.20;;;-1.50;99.90;;;;;;5013601;28;20045;-80
2023/04/03 05:08:33;;;;;;;4.70;2.13;;;-1.50;99.90;;;;;;5005931;28;20038;-80
2023/04/03 05:10:59;;;;;;;2.50;2.00;;;-1.50;99.90;;;;;;5014600;28;20565;-80
2023/04/03 05:13:24;;;;;;;6.90;2.40;;;-1.50;99.90;;;;;;5015280;28;20021;-81
2023/04/03 05:15:50;;;;;;;5.13;2.25;;;-1.60;99.90;;;;;;4996822;28;20034;-81
2023/04/03 05:18:15;;;;;;;5.75;2.45;;;-1.60;99.90;;;;;;5010292;28;20025;-81
2023/04/03 05:20:43;;;;;;;5.88;2.17;;;-1.60;99.90;;;;;;5002493;28;20066;-81
2023/04/03 05:23:09;;;;;;;3.72;2.03;;;-1.60;99.90;;;;;;4991929;28;20400;-81
2023/04/03 05:25:37;;;;;;;3.80;1.98;;;-1.60;99.90;;;;;;4999946;28;20038;-80
2023/04/03 05:28:03;;;;;;;6.53;2.47;;;-1.60;99.90;;;;;;5002622;28;20484;-81
2023/04/03 05:30:29;;;;;;;2.70;1.95;;;-1.60;99.90;;;;;;5003050;28;20039;-81
2023/04/03 05:32:54;;;;;;;2.80;1.83;;;-1.60;99.90;;;;;;4996954;28;20568;-80
2023/04/03 05:35:20;;;;;;;3.75;1.75;;;-1.60;99.90;;;;;;5004591;28;20052;-81
2023/04/03 05:37:45;;;;;;;4.03;2.17;;;-1.60;99.90;;;;;;5003405;28;20041;-80
2023/04/03 05:40:11;;;;;;;5.10;2.70;;;-1.50;99.90;;;;;;5027898;28;20022;-80
2023/04/03 05:42:36;;;;;;;4.47;2.28;;;-1.60;99.90;;;;;;5005138;28;20370;-81
2023/04/03 05:45:02;;;;;;;3.15;1.92;;;-1.50;99.90;;;;;;4998424;28;20022;-79
2023/04/03 05:47:28;;;;;;;6.50;1.92;;;-1.50;99.90;;;;;;5001847;28;20073;-80
2023/04/03 05:49:53;;;;;;;5.32;2.33;;;-1.50;99.90;;;;;;5001991;28;20030;-80
2023/04/03 05:52:28;;;;;;;4.00;1.98;;;-1.50;99.90;;;;;;5009129;28;20034;-80
2023/04/03 05:54:54;;;;;;;3.25;1.55;;;-1.40;99.90;;;;;;4999013;28;20038;-80
2023/04/03 05:57:21;;;;;;;4.25;2.15;;;-1.40;99.90;;;;;;5012082;28;20092;-81
2023/04/03 05:59:46;;;;;;;3.95;2.25;;;-1.30;99.90;;;;;;4994945;28;20045;-81
2023/04/03 06:02:15;;;;;;;2.70;1.52;;;-1.30;99.90;;;;;;5003711;28;20049;-80
2023/04/03 06:04:41;;;;;;;8.80;2.10;;;-1.30;99.90;;;;;;5004359;28;20516;-81
2023/04/03 06:07:10;;;;;;;2.95;1.75;;;-1.20;99.90;;;;;;4995572;28;20033;-81
2023/04/03 06:09:36;;;;;;;8.77;2.28;;;-1.20;99.90;;;;;;5003430;28;20034;-81
2023/04/03 06:12:01;;;;;;;3.03;1.80;;;-1.10;99.90;;;;;;5010287;28;20040;-80
2023/04/03 06:14:27;;;;;;;5.57;1.80;;;-1.00;99.90;;;;;;5022964;28;20026;-80
2023/04/03 06:16:53;;;;;;;8.27;1.88;;;-0.90;99.90;;;;;;5001795;28;20035;-81
2023/04/03 06:19:19;;;;;;;6.68;2.00;;;-0.80;99.90;;;;;;5007477;28;20076;-80
2023/04/03 06:21:46;;;;;;;4.22;2.05;;;-0.70;99.90;;;;;;5003450;28;20037;-81
2023/04/03 06:24:15;;;;;;;5.28;1.75;;;-0.60;99.90;;;;;;5002792;28;20053;-80
2023/04/03 06:26:41;;;;;;;4.90;1.23;;;-0.50;99.90;;;;;;5001006;28;20138;-81
2023/04/03 06:29:07;;;;;;;3.55;1.95;;;-0.40;99.90;;;;;;4995181;28;20057;-81
2023/04/03 06:31:32;;;;;;;5.60;2.47;;;-0.30;99.90;;;;;;5008142;28;20334;-81
2023/04/03 06:33:58;;;;;;;3.47;1.63;;;-0.30;99.90;;;;;;5003827;28;20393;-81
2023/04/03 06:36:24;;;;;;;4.47;1.75;;;-0.10;99.90;;;;;;5009257;28;20056;-82
2023/04/03 06:38:49;;;;;;;6.25;2.13;;;0.00;99.90;;;;;;5002958;28;20022;-81
2023/04/03 06:41:16;;;;;;;1.75;1.42;;;0.10;99.90;;;;;;5009185;28;20025;-82
2023/04/03 06:43:42;;;;;;;4.68;1.67;;;0.20;99.90;;;;;;5008109;28;20515;-82
2023/04/03 06:46:17;;;;;;;4.35;2.03;;;0.30;99.90;;;;;;5010069;28;20034;-81
2023/04/03 06:48:43;;;;;;;3.60;1.30;;;0.50;99.90;;;;;;5000056;28;20069;-82
2023/04/03 06:51:24;;;;;;;2.38;1.60;;;0.60;99.90;;;;;;5002324;28;20060;-82
2023/04/03 06:53:52;;;;;;;3.17;1.42;;;0.70;99.90;;;;;;5004193;28;20035;-82
2023/04/03 06:56:18;;;;;;;2.75;1.38;;;0.80;99.90;;;;;;5007808;28;20030;-82
2023/04/03 06:58:44;;;;;;;4.90;1.40;;;0.90;99.90;;;;;;5003011;28;20102;-83
2023/04/03 07:01:12;;;;;;;3.17;1.73;;;1.10;99.90;;;;;;5005801;28;20045;-83
2023/04/03 07:03:38;;;;;;;7.78;1.63;;;1.10;99.90;;;;;;5005302;28;20039;-83
2023/04/03 07:06:05;;;;;;;3.75;1.40;;;1.30;99.90;;;;;;5006234;28;20033;-83
2023/04/03 07:08:32;;;;;;;1.45;1.10;;;1.40;99.90;;;;;;5007756;28;20540;-82
2023/04/03 07:10:57;;;;;;;5.35;1.60;;;1.50;99.90;;;;;;5000456;28;20033;-83
2023/04/03 07:13:23;;;;;;;5.57;1.73;;;1.70;99.90;;;;;;5006605;28;20033;-83
2023/04/03 07:15:48;;;;;;;3.22;1.45;;;1.80;99.90;;;;;;4988730;28;20105;-83
2023/04/03 07:18:14;;;;;;;1.85;1.20;;;1.90;99.90;;;;;;4992831;28;20028;-83
2023/04/03 07:20:40;;;;;;;3.90;1.30;;;2.00;99.90;;;;;;4998441;28;20022;-82
2023/04/03 07:23:05;;;;;;;4.65;0.90;;;2.20;99.90;;;;;;5004748;28;20786;-83
2023/04/03 07:25:31;;;;;;;3.05;1.52;;;2.30;99.90;;;;;;4995714;28;20023;-83
2023/04/03 07:27:57;;;;;;;1.27;0.82;;;2.50;99.90;;;;;;4994440;28;20121;-83
2023/04/03 07:30:23;;;;;;;2.90;0.95;;;2.70;99.90;;;;;;5002498;28;20022;-83
2023/04/03 07:32:48;;;;;;;1.48;1.02;;;2.80;99.90;;;;;;4994165;28;20023;-83
2023/04/03 07:35:15;;;;;;;4.18;1.45;;;3.00;99.90;;;;;;5016685;28;20156;-83
2023/04/03 07:37:40;;;;;;;2.15;1.00;;;3.20;99.90;;;;;;5018340;28;20038;-82
2023/04/03 07:40:06;;;;;;;4.90;1.70;;;3.40;99.90;;;;;;5020437;28;20018;-83
2023/04/03 07:42:32;;;;;;;2.45;1.20;;;3.50;99.90;;;;;;5026761;28;20030;-83
2023/04/03 07:44:57;;;;;;;4.35;1.05;;;3.70;99.90;;;;;;5015094;28;20033;-83
2023/04/03 07:47:23;;;;;;;2.58;1.15;;;3.90;99.90;;;;;;5009285;28;20034;-84
2023/04/03 07:49:49;;;;;;;3.17;1.10;;;4.10;99.90;;;;;;5007564;28;20061;-83
2023/04/03 07:52:15;;;;;;;1.60;0.70;;;4.20;99.90;;;;;;5019728;28;20037;-84
2023/04/03 07:54:41;;;;;;;1.38;0.90;;;4.30;99.90;;;;;;5007731;28;20033;-83
2023/04/03 07:57:07;;;;;;;3.38;1.30;;;4.40;99.90;;;;;;5015444;28;20014;-83
2023/04/03 07:59:32;;;;;;;4.80;1.00;;;4.50;99.90;;;;;;5002715;28;20089;-83
2023/04/03 08:01:58;;;;;;;2.60;0.88;;;4.70;99.90;;;;;;5010368;28;20065;-82
2023/04/03 08:04:25;;;;;;;5.70;1.20;;;4.60;99.90;;;;;;5002195;28;20021;-83
2023/04/03 08:06:51;;;;;;;6.75;1.52;;;4.80;99.90;;;;;;5015739;28;20022;-83
2023/04/03 08:09:17;;;;;;;2.85;1.00;;;5.00;99.90;;;;;;5007183;28;20025;-82
2023/04/03 08:11:44;;;;;;;2.08;1.33;;;5.20;99.90;;;;;;5005926;28;20022;-84
2023/04/03 08:14:15;;;;;;;4.32;1.13;;;5.40;99.90;;;;;;5011628;28;20026;-83
2023/04/03 08:16:41;;;;;;;1.35;0.98;;;5.50;99.90;;;;;;5004600;28;20034;-84
2023/04/03 08:19:07;;;;;;;1.63;0.93;;;5.70;99.90;;;;;;5005612;28;20017;-83
2023/04/03 08:21:33;;;;;;;2.20;0.77;;;5.70;99.90;;;;;;5004481;28;20111;-83
2023/04/03 08:23:58;;;;;;;2.33;1.02;;;5.80;99.90;;;;;;5008582;28;20621;-83
2023/04/03 08:26:26;;;;;;;3.15;1.02;;;5.70;99.90;;;;;;5001198;28;20113;-81
2023/04/03 08:28:51;;;;;;;1.58;0.90;;;5.40;99.90;;;;;;4999429;28;20113;-82
2023/04/03 08:31:19;;;;;;;4.82;1.10;;;5.40;99.90;;;;;;5000557;28;20066;-83
2023/04/03 08:33:46;;;;;;;5.93;1.33;;;5.60;99.90;;;;;;5002781;28;20088;-83
2023/04/03 08:36:30;;;;;;;2.40;1.45;;;5.90;99.90;;;;;;5006517;28;20022;-83
2023/04/03 08:38:56;;;;;;;1.60;1.20;;;6.00;99.90;;;;;;5002666;28;20023;-82
2023/04/03 08:41:36;;;;;;;2.78;0.93;;;6.30;99.90;;;;;;5003805;28;20159;-82
2023/04/03 08:44:05;;;;;;;8.77;0.63;;;6.60;99.90;;;;;;5004560;28;20054;-82
2023/04/03 08:46:48;;;;;;;4.38;1.15;;;6.90;99.90;;;;;;5006527;28;20104;-83
2023/04/03 08:49:56;;;;;;;1.75;0.70;;;7.10;99.90;;;;;;4998441;28;20128;-82
2023/04/03 08:52:34;;;;;;;1.70;0.73;;;7.20;99.90;;;;;;4978127;28;20026;-82
2023/04/03 08:55:07;;;;;;;4.63;1.20;;;7.50;99.90;;;;;;4992816;28;20023;-82
2023/04/03 08:57:44;;;;;;;2.83;0.70;;;7.70;99.90;;;;;;4999356;28;20027;-83
2023/04/03 09:00:22;;;;;;;2.05;0.77;;;7.80;99.90;;;;;;5001243;28;20022;-83
2023/04/03 09:02:49;;;;;;;3.03;0.88;;;7.90;99.90;;;;;;5000464;28;20447;-81
2023/04/03 09:05:43;;;;;;;5.57;1.00;;;8.00;99.20;;;;;;4992181;28;20029;-81
2023/04/03 09:08:26;;;;;;;1.70;0.60;;;7.50;98.90;;;;;;4997016;28;20029;-82
2023/04/03 09:11:13;;;;;;;3.50;0.70;;;7.50;99.90;;;;;;5004089;28;20029;-81
2023/04/03 09:14:01;;;;;;;1.48;0.82;;;7.80;99.90;;;;;;5001644;28;20521;-82
2023/04/03 09:16:42;;;;;;;1.67;0.68;;;7.90;99.90;;;;;;4990203;28;20030;-81
2023/04/03 09:19:38;;;;;;;2.78;1.25;;;8.20;99.90;;;;;;4986383;28;20033;-81
2023/04/03 09:22:21;;;;;;;0.90;0.50;;;8.30;98.00;;;;;;4997895;28;20036;-81
2023/04/03 09:24:55;;;;;;;0.65;0.43;;;8.50;93.80;;;;;;5007973;28;20032;-82
2023/04/03 09:27:21;;;;;;;1.60;0.80;;;8.30;91.40;;;;;;5001254;28;20432;-81
2023/04/03 09:29:49;;;;;;;1.83;0.50;;;7.80;90.90;;;;;;5011673;28;20042;-80
2023/04/03 09:32:30;;;;;;;2.20;0.70;;;7.30;92.80;;;;;;5014955;28;20070;-81
2023/04/03 09:35:00;;;;;;;1.38;0.45;;;7.30;93.00;;;;;;5009601;28;20560;-80
2023/04/03 09:37:44;;;;;;;2.53;0.93;;;7.40;91.20;;;;;;5003840;28;20054;-81
2023/04/03 09:40:25;;;;;;;1.40;0.70;;;7.40;92.80;;;;;;5006550;28;20054;-81
2023/04/03 09:42:55;;;;;;;2.33;0.60;;;7.60;94.20;;;;;;5005338;28;20464;-81
2023/04/03 09:45:27;;;;;;;2.03;1.05;;;7.60;93.00;;;;;;5018319;28;20060;-82
2023/04/03 09:48:13;;;;;;;1.45;0.77;;;7.50;92.50;;;;;;5013819;28;20042;-82
2023/04/03 09:50:55;;;;;;;3.35;1.02;;;7.40;93.70;;;;;;4990444;28;20501;-82
2023/04/03 09:53:36;;;;;;;3.08;0.80;;;7.40;93.90;;;;;;4991972;28;20062;-80
2023/04/03 09:56:17;;;;;;;1.88;1.05;;;7.20;93.00;;;;;;4999216;28;20026;-82
2023/04/03 09:58:49;;;;;;;3.10;1.00;;;7.40;93.90;;;;;;5001824;28;20026;-81
2023/04/03 10:01:37;;;;;;;4.40;0.90;;;7.60;94.00;;;;;;4999499;28;20034;-82
2023/04/03 10:04:12;;;;;;;2.15;0.57;;;7.30;92.70;;;;;;4991115;28;20536;-81
2023/04/03 10:06:46;;;;;;;2.72;1.15;;;6.90;92.40;;;;;;5002546;28;20053;-83
2023/04/03 10:09:22;;;;;;;2.53;0.55;;;6.90;94.40;;;;;;4990720;28;20613;-82
2023/04/03 10:11:54;;;;;;;;;;;6.70;94.70;;;;;;5002361;28;20026;-82
2023/04/03 10:14:20;;;;;;;3.20;0.80;;;7.00;95.20;;;;;;5008081;28;20368;-82
2023/04/03 10:17:03;;;;;;;4.25;0.95;;;7.30;94.30;;;;;;4999623;28;20049;-81
2023/04/03 10:19:42;;;;;;;2.75;0.57;;;7.70;95.30;;;;;;5000909;28;20022;-82
2023/04/03 10:22:19;;;;;;;1.42;0.88;;;7.80;93.70;;;;;;5000890;28;20101;-82
2023/04/03 10:25:11;;;;;;;1.80;0.75;;;7.70;94.70;;;;;;4997214;28;20117;-82
2023/04/03 10:28:00;;;;;;;3.03;1.25;;;7.60;93.50;;;;;;4997771;28;20465;-82
2023/04/03 10:30:28;;;;;;;1.55;0.73;;;7.50;94.50;;;;;;4999750;28;20027;-81
2023/04/03 10:33:16;;;;;;;3.05;0.98;;;7.40;94.70;;;;;;5003613;28;20036;-81
2023/04/03 10:35:46;;;;;;;1.50;0.77;;;7.30;94.80;;;;;;4996525;28;20018;-79
2023/04/03 10:38:36;;;;;;;0.57;0.40;;;6.90;93.80;;;;;;4994274;28;20023;-81
2023/04/03 10:41:20;;;;;;;0.80;0.50;;;6.60;94.90;;;;;;4998979;28;20030;-82
2023/04/03 10:44:20;;;;;;;2.38;1.05;;;6.50;95.10;;;;;;5005477;28;20038;-81
2023/04/03 10:47:15;;;;;;;3.05;1.10;;;6.50;95.20;;;;;;4998344;28;20116;-82
2023/04/03 10:49:56;;;;;;;0.93;0.70;;;6.70;94.60;;;;;;4998437;28;20052;-82
2023/04/03 10:52:30;;;;;;;1.13;0.80;;;6.70;92.90;;;;;;5000525;28;20096;-82
2023/04/03 10:55:20;;;;;;;2.13;0.88;;;6.60;93.30;;;;;;5003761;28;20034;-81
2023/04/03 10:57:49;;;;;;;2.20;0.80;;;6.60;93.20;;;;;;5000136;28;20054;-81
2023/04/03 11:00:26;;;;;;;2.95;1.08;;;6.60;93.90;;;;;;5003582;28;20018;-82
2023/04/03 11:03:00;;;;;;;4.05;0.88;;;6.50;93.20;;;;;;5006837;28;20100;-81
2023/04/03 11:05:43;;;;;;;1.15;0.80;;;6.50;93.60;;;;;;5006945;28;20030;-81
2023/04/03 11:08:21;;;;;;;1.48;0.80;;;6.40;93.10;;;;;;5002381;28;20022;-81
2023/04/03 11:10:50;;;;;;;2.30;0.68;;;6.30;93.80;;;;;;5009969;28;20080;-84
2023/04/03 11:13:37;;;;;;;0.77;0.60;;;6.30;94.20;;;;;;5008381;28;20021;-82
2023/04/03 11:16:05;;;;;;;0.68;0.60;;;6.30;93.90;;;;;;5004638;28;20034;-80
2023/04/03 11:18:44;;;;;;;1.92;0.80;;;6.30;94.20;;;;;;5006985;28;20046;-81
2023/04/03 11:21:19;;;;;;;1.17;0.65;;;6.30;94.70;;;;;;4991585;28;20453;-81
2023/04/03 11:23:46;;;;;;;;;;;6.40;94.30;;;;;;5004916;28;20146;-81
2023/04/03 11:26:25;;;;;;;3.83;1.37;;;6.40;94.80;;;;;;5001540;28;20499;-82
2023/04/03 11:28:59;;;;;;;2.72;0.95;;;6.50;94.70;;;;;;5025666;28;20051;-80
2023/04/03 11:31:57;;;;;;;3.03;0.70;;;6.40;94.70;;;;;;5006521;28;20231;-80
2023/04/03 11:34:36;;;;;;;1.40;0.75;;;6.50;95.10;;;;;;5002266;28;20040;-79
2023/04/03 11:37:11;;;;;;;3.85;1.05;;;6.60;94.10;;;;;;5002023;28;20043;-83
2023/04/03 11:39:38;;;;;;;0.70;0.40;;;6.70;94.50;;;;;;5005712;28;20416;-80
2023/04/03 11:42:36;;;;;;;1.35;0.50;;;7.10;94.50;;;;;;5007580;28;20029;-82
2023/04/03 11:45:58;;;;;;;1.27;0.70;;;7.40;94.80;;;;;;5002014;28;20037;-81
2023/04/03 11:48:18;;;;;;;2.28;0.93;;;7.70;93.00;;;;;;5013363;28;20077;-81
2023/04/03 11:50:47;;;;;;;1.75;0.57;;;7.70;92.60;;;;;;5013966;28;20108;-81
2023/04/03 11:53:13;;;;;;;2.17;1.25;;;7.90;93.20;;;;;;5021278;28;20057;-79
2023/04/03 11:55:47;;;;;;;1.88;0.52;;;8.10;94.40;;;;;;4996231;28;20033;-80
2023/04/03 11:58:21;;;;;;;1.88;0.73;;;8.30;92.90;;;;;;4990500;28;20506;-83
2023/04/03 12:00:51;;;;;;;1.02;0.65;;;8.40;93.50;;;;;;5004122;28;20080;-82
2023/04/03 12:03:31;;;;;;;1.55;0.98;;;8.60;92.80;;;;;;5003569;28;20030;-81
2023/04/03 12:06:16;;;;;;;4.97;0.73;;;8.30;92.20;;;;;;4993076;28;20065;-81
2023/04/03 12:08:42;;;;;;;3.13;1.35;;;8.00;93.60;;;;;;4992485;28;20065;-80
2023/04/03 12:11:10;;;;;;;1.92;1.15;;;7.70;93.00;;;;;;5002249;28;20040;-81
2023/04/03 12:13:54;;;;;;;2.83;1.08;;;7.50;91.80;;;;;;5002847;28;20034;-81
2023/04/03 12:16:32;;;;;;;2.38;0.60;;;7.30;92.10;;;;;;4992097;28;20034;-81
2023/04/03 12:19:03;;;;;;;3.25;0.75;;;7.20;92.10;;;;;;5002839;28;20413;-82
2023/04/03 12:21:44;;;;;;;1.30;0.52;;;7.40;91.10;;;;;;4996684;28;20323;-81
2023/04/03 12:24:10;;;;;;;2.60;0.93;;;7.30;90.30;;;;;;4988969;28;20117;-79
2023/04/03 12:27:11;;;;;;;1.08;0.70;;;7.50;90.10;;;;;;4998066;28;20081;-81
2023/04/03 12:30:15;;;;;;;2.63;0.73;;;7.80;93.00;;;;;;4999676;28;20093;-80
2023/04/03 12:33:16;;;;;;;2.22;0.75;;;8.30;93.10;;;;;;4992617;28;20034;-80
2023/04/03 12:35:59;;;;;;;3.10;0.65;;;8.60;90.90;;;;;;5005383;28;20033;-82
2023/04/03 12:38:33;;;;;;;2.35;0.73;;;8.80;89.30;;;;;;4999753;28;20048;-80
2023/04/03 12:41:26;;;;;;;3.25;1.02;;;8.80;86.80;;;;;;5001064;28;20656;-81
2023/04/03 12:44:15;;;;;;;2.13;0.77;;;8.50;84.30;;;;;;4998023;28;20026;-81
2023/04/03 12:46:46;;;;;;;1.00;0.60;;;8.30;87.30;;;;;;4992033;28;20150;-82
2023/04/03 12:49:42;;;;;;;2.22;0.90;;;8.30;85.30;;;;;;4994327;28;20433;-81
2023/04/03 12:52:29;;;;;;;1.67;0.60;;;8.00;80.90;;;;;;4996501;28;20034;-81
2023/04/03 12:54:56;;;;;;;2.42;1.10;;;7.70;85.90;;;;;;5000966;28;20034;-81
2023/04/03 12:57:26;;;;;;;1.17;0.70;;;7.50;89.40;;;;;;4999607;28;20042;-81
2023/04/03 12:59:51;;;;;;;2.60;0.93;;;7.50;89.20;;;;;;4997325;28;20045;-80
2023/04/03 13:02:20;;;;;;;1.88;1.10;;;7.50;90.40;;;;;;5009753;28;20485;-80
2023/04/03 13:04:46;;;;;;;2.70;0.63;;;7.70;90.60;;;;;;4999992;28;20165;-78
2023/04/03 13:07:25;;;;;;;2.60;1.00;;;7.80;89.20;;;;;;5003163;28;20022;-80
2023/04/03 13:10:07;;;;;;;3.00;1.30;;;7.80;83.30;;;;;;4997095;28;20106;-81